sensor_id;sensor_type;location;lat;lon;timestamp;P1;durP1;ratioP1;P2;durP2;ratioP2
76552;SDS011;65395;53.168;18.156;2024-02-21T00:00:53;18.90;;;5.20;;
76552;SDS011;65395;53.168;18.156;2024-02-21T00:03:40;19.00;;;5.60;;
76552;SDS011;65395;53.168;18.156;2024-02-21T00:06:07;18.70;;;4.90;;
76552;SDS011;65395;53.168;18.156;2024-02-21T00:08:34;17.60;;;5.40;;
76552;SDS011;65395;53.168;18.156;2024-02-21T00:11:01;19.20;;;5.90;;
76552;SDS011;65395;53.168;18.156;2024-02-21T00:13:28;16.90;;;5.70;;
76552;SDS011;65395;53.168;18.156;2024-02-21T00:15:55;17.30;;;5.30;;
76552;SDS011;65395;53.168;18.156;2024-02-21T00:18:22;19.50;;;5.40;;
76552;SDS011;65395;53.168;18.156;2024-02-21T00:20:48;21.10;;;5.70;;
76552;SDS011;65395;53.168;18.156;2024-02-21T00:23:15;19.90;;;5.80;;
76552;SDS011;65395;53.168;18.156;2024-02-21T00:25:42;13.60;;;5.30;;
76552;SDS011;65395;53.168;18.156;2024-02-21T00:28:09;18.50;;;5.50;;
76552;SDS011;65395;53.168;18.156;2024-02-21T00:30:38;17.60;;;5.60;;
76552;SDS011;65395;53.168;18.156;2024-02-21T00:33:05;19.40;;;5.60;;
76552;SDS011;65395;53.168;18.156;2024-02-21T00:35:32;21.60;;;5.50;;
76552;SDS011;65395;53.168;18.156;2024-02-21T00:37:59;18.60;;;5.90;;
76552;SDS011;65395;53.168;18.156;2024-02-21T00:40:26;16.20;;;5.50;;
76552;SDS011;65395;53.168;18.156;2024-02-21T00:42:53;18.10;;;5.90;;
76552;SDS011;65395;53.168;18.156;2024-02-21T00:45:20;18.20;;;5.00;;
76552;SDS011;65395;53.168;18.156;2024-02-21T00:47:47;18.50;;;5.50;;
76552;SDS011;65395;53.168;18.156;2024-02-21T00:50:14;14.80;;;5.60;;
76552;SDS011;65395;53.168;18.156;2024-02-21T00:52:41;17.10;;;5.50;;
76552;SDS011;65395;53.168;18.156;2024-02-21T00:55:08;15.80;;;5.80;;
76552;SDS011;65395;53.168;18.156;2024-02-21T00:57:35;16.60;;;6.30;;
76552;SDS011;65395;53.168;18.156;2024-02-21T01:00:03;18.70;;;5.40;;
76552;SDS011;65395;53.168;18.156;2024-02-21T01:02:30;17.70;;;5.30;;
76552;SDS011;65395;53.168;18.156;2024-02-21T01:04:58;19.60;;;5.70;;
76552;SDS011;65395;53.168;18.156;2024-02-21T01:07:25;17.90;;;6.20;;
76552;SDS011;65395;53.168;18.156;2024-02-21T01:09:52;18.80;;;6.50;;
76552;SDS011;65395;53.168;18.156;2024-02-21T01:12:19;16.70;;;6.70;;
76552;SDS011;65395;53.168;18.156;2024-02-21T01:14:46;21.20;;;5.80;;
76552;SDS011;65395;53.168;18.156;2024-02-21T01:17:13;16.30;;;6.10;;
76552;SDS011;65395;53.168;18.156;2024-02-21T01:19:40;21.60;;;6.50;;
76552;SDS011;65395;53.168;18.156;2024-02-21T01:22:07;19.10;;;6.40;;
76552;SDS011;65395;53.168;18.156;2024-02-21T01:24:35;22.50;;;6.40;;
76552;SDS011;65395;53.168;18.156;2024-02-21T01:27:02;16.80;;;6.10;;
76552;SDS011;65395;53.168;18.156;2024-02-21T01:29:29;23.40;;;6.20;;
76552;SDS011;65395;53.168;18.156;2024-02-21T01:31:56;22.50;;;7.40;;
76552;SDS011;65395;53.168;18.156;2024-02-21T01:34:23;18.70;;;6.40;;
76552;SDS011;65395;53.168;18.156;2024-02-21T01:36:50;18.70;;;6.60;;
76552;SDS011;65395;53.168;18.156;2024-02-21T01:39:17;21.40;;;7.00;;
76552;SDS011;65395;53.168;18.156;2024-02-21T01:41:44;18.10;;;6.60;;
76552;SDS011;65395;53.168;18.156;2024-02-21T01:44:10;21.20;;;6.70;;
76552;SDS011;65395;53.168;18.156;2024-02-21T01:46:37;23.30;;;7.40;;
76552;SDS011;65395;53.168;18.156;2024-02-21T01:49:05;21.20;;;6.80;;
76552;SDS011;65395;53.168;18.156;2024-02-21T01:51:32;20.10;;;7.10;;
76552;SDS011;65395;53.168;18.156;2024-02-21T01:53:59;21.10;;;6.60;;
76552;SDS011;65395;53.168;18.156;2024-02-21T01:56:26;21.00;;;7.00;;
76552;SDS011;65395;53.168;18.156;2024-02-21T01:58:54;22.30;;;6.50;;
76552;SDS011;65395;53.168;18.156;2024-02-21T02:01:22;25.90;;;7.30;;
76552;SDS011;65395;53.168;18.156;2024-02-21T02:03:49;19.20;;;6.60;;
76552;SDS011;65395;53.168;18.156;2024-02-21T02:06:16;21.50;;;7.00;;
76552;SDS011;65395;53.168;18.156;2024-02-21T02:08:43;25.40;;;6.90;;
76552;SDS011;65395;53.168;18.156;2024-02-21T02:11:10;19.80;;;6.90;;
76552;SDS011;65395;53.168;18.156;2024-02-21T02:13:39;24.00;;;6.80;;
76552;SDS011;65395;53.168;18.156;2024-02-21T02:16:06;24.30;;;8.00;;
76552;SDS011;65395;53.168;18.156;2024-02-21T02:18:33;21.20;;;7.00;;
76552;SDS011;65395;53.168;18.156;2024-02-21T02:21:00;22.40;;;7.40;;
76552;SDS011;65395;53.168;18.156;2024-02-21T02:23:28;29.00;;;7.30;;
76552;SDS011;65395;53.168;18.156;2024-02-21T02:25:56;26.10;;;7.30;;
76552;SDS011;65395;53.168;18.156;2024-02-21T02:28:24;24.90;;;8.10;;
76552;SDS011;65395;53.168;18.156;2024-02-21T02:30:51;24.50;;;7.50;;
76552;SDS011;65395;53.168;18.156;2024-02-21T02:33:18;29.60;;;8.00;;
76552;SDS011;65395;53.168;18.156;2024-02-21T02:35:46;26.70;;;7.90;;
76552;SDS011;65395;53.168;18.156;2024-02-21T02:38:13;26.30;;;7.40;;
76552;SDS011;65395;53.168;18.156;2024-02-21T02:40:40;22.60;;;7.40;;
76552;SDS011;65395;53.168;18.156;2024-02-21T02:43:08;30.00;;;7.50;;
76552;SDS011;65395;53.168;18.156;2024-02-21T02:45:35;25.20;;;7.50;;
76552;SDS011;65395;53.168;18.156;2024-02-21T02:48:02;27.50;;;6.60;;
76552;SDS011;65395;53.168;18.156;2024-02-21T02:50:29;25.00;;;7.50;;
76552;SDS011;65395;53.168;18.156;2024-02-21T02:52:56;26.30;;;7.30;;
76552;SDS011;65395;53.168;18.156;2024-02-21T02:55:23;27.00;;;7.50;;
76552;SDS011;65395;53.168;18.156;2024-02-21T02:57:50;25.00;;;8.30;;
76552;SDS011;65395;53.168;18.156;2024-02-21T03:00:17;30.60;;;8.40;;
76552;SDS011;65395;53.168;18.156;2024-02-21T03:02:45;33.90;;;9.00;;
76552;SDS011;65395;53.168;18.156;2024-02-21T03:05:15;29.30;;;10.50;;
76552;SDS011;65395;53.168;18.156;2024-02-21T03:07:45;28.90;;;10.40;;
76552;SDS011;65395;53.168;18.156;2024-02-21T03:10:12;27.70;;;10.00;;
76552;SDS011;65395;53.168;18.156;2024-02-21T03:12:40;35.00;;;10.30;;
76552;SDS011;65395;53.168;18.156;2024-02-21T03:15:07;26.50;;;8.90;;
76552;SDS011;65395;53.168;18.156;2024-02-21T03:17:34;26.00;;;8.80;;
76552;SDS011;65395;53.168;18.156;2024-02-21T03:20:02;24.70;;;8.50;;
76552;SDS011;65395;53.168;18.156;2024-02-21T03:22:36;25.20;;;8.00;;
76552;SDS011;65395;53.168;18.156;2024-02-21T03:25:04;23.80;;;8.00;;
76552;SDS011;65395;53.168;18.156;2024-02-21T03:27:32;27.70;;;8.10;;
76552;SDS011;65395;53.168;18.156;2024-02-21T03:29:59;28.00;;;7.70;;
76552;SDS011;65395;53.168;18.156;2024-02-21T03:32:26;25.10;;;7.20;;
76552;SDS011;65395;53.168;18.156;2024-02-21T03:34:54;29.50;;;7.20;;
76552;SDS011;65395;53.168;18.156;2024-02-21T03:37:21;21.60;;;7.30;;
76552;SDS011;65395;53.168;18.156;2024-02-21T03:39:48;21.60;;;7.10;;
76552;SDS011;65395;53.168;18.156;2024-02-21T03:42:15;26.20;;;7.20;;
76552;SDS011;65395;53.168;18.156;2024-02-21T03:44:42;25.90;;;7.80;;
76552;SDS011;65395;53.168;18.156;2024-02-21T03:47:09;23.80;;;8.30;;
76552;SDS011;65395;53.168;18.156;2024-02-21T03:49:37;24.90;;;8.70;;
76552;SDS011;65395;53.168;18.156;2024-02-21T03:52:04;25.40;;;7.50;;
76552;SDS011;65395;53.168;18.156;2024-02-21T03:54:32;26.90;;;7.80;;
76552;SDS011;65395;53.168;18.156;2024-02-21T03:56:59;24.60;;;7.50;;
76552;SDS011;65395;53.168;18.156;2024-02-21T03:59:25;27.30;;;7.20;;
76552;SDS011;65395;53.168;18.156;2024-02-21T04:01:52;24.90;;;7.30;;
76552;SDS011;65395;53.168;18.156;2024-02-21T04:04:20;31.20;;;8.10;;
76552;SDS011;65395;53.168;18.156;2024-02-21T04:06:48;23.40;;;7.50;;
76552;SDS011;65395;53.168;18.156;2024-02-21T04:09:16;27.10;;;7.40;;
76552;SDS011;65395;53.168;18.156;2024-02-21T04:11:43;26.70;;;7.20;;
76552;SDS011;65395;53.168;18.156;2024-02-21T04:14:10;23.00;;;7.40;;
76552;SDS011;65395;53.168;18.156;2024-02-21T04:16:38;23.80;;;7.60;;
76552;SDS011;65395;53.168;18.156;2024-02-21T04:19:05;22.90;;;7.30;;
76552;SDS011;65395;53.168;18.156;2024-02-21T04:21:32;16.80;;;6.00;;
76552;SDS011;65395;53.168;18.156;2024-02-21T04:23:59;27.80;;;7.50;;
76552;SDS011;65395;53.168;18.156;2024-02-21T04:26:28;24.90;;;7.20;;
76552;SDS011;65395;53.168;18.156;2024-02-21T04:28:55;21.50;;;7.10;;
76552;SDS011;65395;53.168;18.156;2024-02-21T04:31:22;21.70;;;7.80;;
76552;SDS011;65395;53.168;18.156;2024-02-21T04:33:48;23.00;;;7.60;;
76552;SDS011;65395;53.168;18.156;2024-02-21T04:36:15;21.30;;;7.40;;
76552;SDS011;65395;53.168;18.156;2024-02-21T04:38:42;19.00;;;7.10;;
76552;SDS011;65395;53.168;18.156;2024-02-21T04:41:09;25.70;;;7.50;;
76552;SDS011;65395;53.168;18.156;2024-02-21T04:43:36;26.80;;;7.30;;
76552;SDS011;65395;53.168;18.156;2024-02-21T04:46:04;23.60;;;7.40;;
76552;SDS011;65395;53.168;18.156;2024-02-21T04:48:31;16.40;;;6.70;;
76552;SDS011;65395;53.168;18.156;2024-02-21T04:50:58;18.80;;;6.90;;
76552;SDS011;65395;53.168;18.156;2024-02-21T04:53:25;21.60;;;6.30;;
76552;SDS011;65395;53.168;18.156;2024-02-21T04:55:52;20.10;;;7.30;;
76552;SDS011;65395;53.168;18.156;2024-02-21T04:58:19;23.10;;;7.40;;
76552;SDS011;65395;53.168;18.156;2024-02-21T05:00:45;23.60;;;7.30;;
76552;SDS011;65395;53.168;18.156;2024-02-21T05:03:12;18.60;;;7.40;;
76552;SDS011;65395;53.168;18.156;2024-02-21T05:05:40;19.90;;;7.00;;
76552;SDS011;65395;53.168;18.156;2024-02-21T05:08:07;20.80;;;7.20;;
76552;SDS011;65395;53.168;18.156;2024-02-21T05:10:36;17.10;;;7.10;;
76552;SDS011;65395;53.168;18.156;2024-02-21T05:13:03;17.10;;;6.70;;
76552;SDS011;65395;53.168;18.156;2024-02-21T05:15:31;15.50;;;6.80;;
76552;SDS011;65395;53.168;18.156;2024-02-21T05:17:57;19.70;;;6.80;;
76552;SDS011;65395;53.168;18.156;2024-02-21T05:20:25;19.30;;;7.00;;
76552;SDS011;65395;53.168;18.156;2024-02-21T05:22:52;17.00;;;6.70;;
76552;SDS011;65395;53.168;18.156;2024-02-21T05:25:19;16.30;;;6.30;;
76552;SDS011;65395;53.168;18.156;2024-02-21T05:27:46;20.10;;;7.10;;
76552;SDS011;65395;53.168;18.156;2024-02-21T05:30:14;15.20;;;7.00;;
76552;SDS011;65395;53.168;18.156;2024-02-21T05:32:41;19.90;;;7.30;;
76552;SDS011;65395;53.168;18.156;2024-02-21T05:35:08;18.40;;;7.00;;
76552;SDS011;65395;53.168;18.156;2024-02-21T05:37:35;14.00;;;6.80;;
76552;SDS011;65395;53.168;18.156;2024-02-21T05:40:02;16.40;;;7.10;;
76552;SDS011;65395;53.168;18.156;2024-02-21T05:42:29;15.60;;;6.90;;
76552;SDS011;65395;53.168;18.156;2024-02-21T05:44:56;15.10;;;6.80;;
76552;SDS011;65395;53.168;18.156;2024-02-21T05:47:22;20.90;;;6.80;;
76552;SDS011;65395;53.168;18.156;2024-02-21T05:49:49;23.90;;;7.00;;
76552;SDS011;65395;53.168;18.156;2024-02-21T05:52:19;21.20;;;7.20;;
76552;SDS011;65395;53.168;18.156;2024-02-21T05:54:46;14.90;;;6.80;;
76552;SDS011;65395;53.168;18.156;2024-02-21T05:57:13;20.80;;;8.00;;
76552;SDS011;65395;53.168;18.156;2024-02-21T05:59:40;22.90;;;7.50;;
76552;SDS011;65395;53.168;18.156;2024-02-21T06:02:08;17.50;;;7.50;;
76552;SDS011;65395;53.168;18.156;2024-02-21T06:04:35;17.90;;;7.00;;
76552;SDS011;65395;53.168;18.156;2024-02-21T06:07:02;21.50;;;7.60;;
76552;SDS011;65395;53.168;18.156;2024-02-21T06:09:29;24.20;;;8.20;;
76552;SDS011;65395;53.168;18.156;2024-02-21T06:11:56;18.70;;;8.30;;
76552;SDS011;65395;53.168;18.156;2024-02-21T06:14:22;22.10;;;7.50;;
76552;SDS011;65395;53.168;18.156;2024-02-21T06:16:50;22.80;;;7.80;;
76552;SDS011;65395;53.168;18.156;2024-02-21T06:19:17;24.40;;;8.60;;
76552;SDS011;65395;53.168;18.156;2024-02-21T06:21:44;20.60;;;7.80;;
76552;SDS011;65395;53.168;18.156;2024-02-21T06:24:11;21.50;;;8.00;;
76552;SDS011;65395;53.168;18.156;2024-02-21T06:26:39;23.80;;;8.60;;
76552;SDS011;65395;53.168;18.156;2024-02-21T06:29:07;23.20;;;8.00;;
76552;SDS011;65395;53.168;18.156;2024-02-21T06:31:34;20.90;;;8.90;;
76552;SDS011;65395;53.168;18.156;2024-02-21T06:34:02;26.20;;;8.50;;
76552;SDS011;65395;53.168;18.156;2024-02-21T06:36:29;27.20;;;9.30;;
76552;SDS011;65395;53.168;18.156;2024-02-21T06:38:56;28.90;;;9.20;;
76552;SDS011;65395;53.168;18.156;2024-02-21T06:41:23;24.20;;;8.90;;
76552;SDS011;65395;53.168;18.156;2024-02-21T06:43:50;27.60;;;9.50;;
76552;SDS011;65395;53.168;18.156;2024-02-21T06:46:25;23.50;;;10.00;;
76552;SDS011;65395;53.168;18.156;2024-02-21T06:48:53;21.20;;;8.80;;
76552;SDS011;65395;53.168;18.156;2024-02-21T06:51:20;28.90;;;9.70;;
76552;SDS011;65395;53.168;18.156;2024-02-21T06:53:47;29.90;;;10.30;;
76552;SDS011;65395;53.168;18.156;2024-02-21T06:56:14;27.80;;;10.60;;
76552;SDS011;65395;53.168;18.156;2024-02-21T06:58:41;27.40;;;10.00;;
76552;SDS011;65395;53.168;18.156;2024-02-21T07:01:08;25.90;;;10.60;;
76552;SDS011;65395;53.168;18.156;2024-02-21T07:03:35;28.50;;;10.50;;
76552;SDS011;65395;53.168;18.156;2024-02-21T07:06:02;26.90;;;10.20;;
76552;SDS011;65395;53.168;18.156;2024-02-21T07:08:30;29.70;;;10.60;;
76552;SDS011;65395;53.168;18.156;2024-02-21T07:10:57;30.20;;;10.10;;
76552;SDS011;65395;53.168;18.156;2024-02-21T07:13:24;32.30;;;9.90;;
76552;SDS011;65395;53.168;18.156;2024-02-21T07:15:51;29.00;;;10.00;;
76552;SDS011;65395;53.168;18.156;2024-02-21T07:18:18;32.50;;;10.80;;
76552;SDS011;65395;53.168;18.156;2024-02-21T07:20:46;21.20;;;9.60;;
76552;SDS011;65395;53.168;18.156;2024-02-21T07:23:13;22.50;;;10.40;;
76552;SDS011;65395;53.168;18.156;2024-02-21T07:25:40;24.70;;;9.60;;
76552;SDS011;65395;53.168;18.156;2024-02-21T07:28:07;28.80;;;9.70;;
76552;SDS011;65395;53.168;18.156;2024-02-21T07:30:34;25.60;;;9.70;;
76552;SDS011;65395;53.168;18.156;2024-02-21T07:33:02;25.90;;;10.10;;
76552;SDS011;65395;53.168;18.156;2024-02-21T07:35:29;25.60;;;9.70;;
76552;SDS011;65395;53.168;18.156;2024-02-21T07:37:56;25.30;;;9.20;;
76552;SDS011;65395;53.168;18.156;2024-02-21T07:40:23;26.90;;;9.30;;
76552;SDS011;65395;53.168;18.156;2024-02-21T07:42:50;23.50;;;9.00;;
76552;SDS011;65395;53.168;18.156;2024-02-21T07:45:16;26.90;;;9.80;;
76552;SDS011;65395;53.168;18.156;2024-02-21T07:47:44;23.80;;;9.10;;
76552;SDS011;65395;53.168;18.156;2024-02-21T07:50:11;23.20;;;9.20;;
76552;SDS011;65395;53.168;18.156;2024-02-21T07:52:38;23.30;;;9.10;;
76552;SDS011;65395;53.168;18.156;2024-02-21T07:55:05;25.50;;;9.50;;
76552;SDS011;65395;53.168;18.156;2024-02-21T07:57:32;21.90;;;9.30;;
76552;SDS011;65395;53.168;18.156;2024-02-21T07:59:59;21.80;;;8.80;;
76552;SDS011;65395;53.168;18.156;2024-02-21T08:02:26;27.70;;;9.00;;
76552;SDS011;65395;53.168;18.156;2024-02-21T08:04:53;22.60;;;8.70;;
76552;SDS011;65395;53.168;18.156;2024-02-21T08:07:20;28.50;;;9.00;;
76552;SDS011;65395;53.168;18.156;2024-02-21T08:09:46;21.20;;;8.60;;
76552;SDS011;65395;53.168;18.156;2024-02-21T08:12:13;27.60;;;9.30;;
76552;SDS011;65395;53.168;18.156;2024-02-21T08:14:40;26.50;;;9.60;;
76552;SDS011;65395;53.168;18.156;2024-02-21T08:17:07;24.10;;;8.80;;
76552;SDS011;65395;53.168;18.156;2024-02-21T08:19:34;22.00;;;8.60;;
76552;SDS011;65395;53.168;18.156;2024-02-21T08:22:01;18.40;;;8.10;;
76552;SDS011;65395;53.168;18.156;2024-02-21T08:24:29;23.80;;;9.10;;
76552;SDS011;65395;53.168;18.156;2024-02-21T08:26:56;24.80;;;8.70;;
76552;SDS011;65395;53.168;18.156;2024-02-21T08:29:23;26.50;;;9.00;;
76552;SDS011;65395;53.168;18.156;2024-02-21T08:31:52;22.60;;;8.30;;
76552;SDS011;65395;53.168;18.156;2024-02-21T08:34:20;23.60;;;8.90;;
76552;SDS011;65395;53.168;18.156;2024-02-21T08:36:46;24.00;;;8.60;;
76552;SDS011;65395;53.168;18.156;2024-02-21T08:39:13;27.40;;;8.90;;
76552;SDS011;65395;53.168;18.156;2024-02-21T08:41:43;21.90;;;8.80;;
76552;SDS011;65395;53.168;18.156;2024-02-21T08:44:10;20.40;;;8.20;;
76552;SDS011;65395;53.168;18.156;2024-02-21T08:46:37;23.10;;;8.60;;
76552;SDS011;65395;53.168;18.156;2024-02-21T08:49:06;17.70;;;8.20;;
76552;SDS011;65395;53.168;18.156;2024-02-21T08:51:33;15.90;;;7.90;;
76552;SDS011;65395;53.168;18.156;2024-02-21T08:54:02;19.10;;;7.70;;
76552;SDS011;65395;53.168;18.156;2024-02-21T08:56:30;20.20;;;8.40;;
76552;SDS011;65395;53.168;18.156;2024-02-21T08:58:57;20.20;;;7.90;;
76552;SDS011;65395;53.168;18.156;2024-02-21T09:01:25;16.20;;;7.20;;
76552;SDS011;65395;53.168;18.156;2024-02-21T09:03:53;16.80;;;6.90;;
76552;SDS011;65395;53.168;18.156;2024-02-21T09:06:20;17.80;;;7.70;;
76552;SDS011;65395;53.168;18.156;2024-02-21T09:08:47;21.20;;;7.60;;
76552;SDS011;65395;53.168;18.156;2024-02-21T09:11:14;22.10;;;7.80;;
76552;SDS011;65395;53.168;18.156;2024-02-21T09:13:41;20.00;;;7.50;;
76552;SDS011;65395;53.168;18.156;2024-02-21T09:16:08;20.80;;;8.00;;
76552;SDS011;65395;53.168;18.156;2024-02-21T09:18:35;16.90;;;7.90;;
76552;SDS011;65395;53.168;18.156;2024-02-21T09:21:02;20.00;;;8.10;;
76552;SDS011;65395;53.168;18.156;2024-02-21T09:23:29;22.30;;;8.30;;
76552;SDS011;65395;53.168;18.156;2024-02-21T09:25:57;19.70;;;7.60;;
76552;SDS011;65395;53.168;18.156;2024-02-21T09:28:27;19.10;;;7.50;;
76552;SDS011;65395;53.168;18.156;2024-02-21T09:30:54;19.30;;;7.90;;
76552;SDS011;65395;53.168;18.156;2024-02-21T09:33:20;20.90;;;7.50;;
76552;SDS011;65395;53.168;18.156;2024-02-21T09:35:47;20.00;;;8.60;;
76552;SDS011;65395;53.168;18.156;2024-02-21T09:38:14;22.90;;;7.90;;
76552;SDS011;65395;53.168;18.156;2024-02-21T09:40:41;19.20;;;8.20;;
76552;SDS011;65395;53.168;18.156;2024-02-21T09:43:09;19.30;;;8.60;;
76552;SDS011;65395;53.168;18.156;2024-02-21T09:45:35;22.20;;;8.40;;
76552;SDS011;65395;53.168;18.156;2024-02-21T09:48:11;24.00;;;8.10;;
76552;SDS011;65395;53.168;18.156;2024-02-21T09:50:50;22.70;;;7.80;;
76552;SDS011;65395;53.168;18.156;2024-02-21T09:53:19;19.40;;;8.00;;
76552;SDS011;65395;53.168;18.156;2024-02-21T09:55:47;20.30;;;7.20;;
76552;SDS011;65395;53.168;18.156;2024-02-21T09:58:15;20.60;;;7.70;;
76552;SDS011;65395;53.168;18.156;2024-02-21T10:00:42;20.00;;;7.60;;
76552;SDS011;65395;53.168;18.156;2024-02-21T10:03:09;15.30;;;7.80;;
76552;SDS011;65395;53.168;18.156;2024-02-21T10:05:36;17.10;;;7.50;;
76552;SDS011;65395;53.168;18.156;2024-02-21T10:08:06;18.20;;;7.80;;
76552;SDS011;65395;53.168;18.156;2024-02-21T10:10:41;20.80;;;7.80;;
76552;SDS011;65395;53.168;18.156;2024-02-21T10:13:10;19.10;;;7.50;;
76552;SDS011;65395;53.168;18.156;2024-02-21T10:15:38;17.30;;;7.10;;
76552;SDS011;65395;53.168;18.156;2024-02-21T10:18:05;17.30;;;7.80;;
76552;SDS011;65395;53.168;18.156;2024-02-21T10:20:33;15.80;;;7.50;;
76552;SDS011;65395;53.168;18.156;2024-02-21T10:23:01;16.10;;;8.40;;
76552;SDS011;65395;53.168;18.156;2024-02-21T10:25:29;17.80;;;7.30;;
76552;SDS011;65395;53.168;18.156;2024-02-21T10:27:57;18.50;;;7.30;;
76552;SDS011;65395;53.168;18.156;2024-02-21T10:30:24;12.90;;;7.20;;
76552;SDS011;65395;53.168;18.156;2024-02-21T10:32:51;16.10;;;7.20;;
76552;SDS011;65395;53.168;18.156;2024-02-21T10:35:27;13.30;;;7.10;;
76552;SDS011;65395;53.168;18.156;2024-02-21T10:37:56;16.20;;;7.60;;
76552;SDS011;65395;53.168;18.156;2024-02-21T10:40:24;15.60;;;7.50;;
76552;SDS011;65395;53.168;18.156;2024-02-21T10:42:55;17.50;;;8.10;;
76552;SDS011;65395;53.168;18.156;2024-02-21T10:45:28;15.20;;;7.20;;
76552;SDS011;65395;53.168;18.156;2024-02-21T10:48:02;15.90;;;8.10;;
76552;SDS011;65395;53.168;18.156;2024-02-21T10:50:43;15.40;;;8.10;;
76552;SDS011;65395;53.168;18.156;2024-02-21T10:53:24;18.80;;;7.30;;
76552;SDS011;65395;53.168;18.156;2024-02-21T10:56:06;17.90;;;7.80;;
76552;SDS011;65395;53.168;18.156;2024-02-21T10:58:43;15.80;;;7.20;;
76552;SDS011;65395;53.168;18.156;2024-02-21T11:01:10;17.40;;;8.60;;
76552;SDS011;65395;53.168;18.156;2024-02-21T11:03:41;16.70;;;7.90;;
76552;SDS011;65395;53.168;18.156;2024-02-21T11:06:11;16.10;;;8.00;;
76552;SDS011;65395;53.168;18.156;2024-02-21T11:08:39;16.60;;;8.10;;
76552;SDS011;65395;53.168;18.156;2024-02-21T11:11:06;16.00;;;7.40;;
76552;SDS011;65395;53.168;18.156;2024-02-21T11:13:37;14.80;;;7.70;;
76552;SDS011;65395;53.168;18.156;2024-02-21T11:16:08;14.80;;;7.40;;
76552;SDS011;65395;53.168;18.156;2024-02-21T11:18:38;14.90;;;7.70;;
76552;SDS011;65395;53.168;18.156;2024-02-21T11:21:05;14.20;;;7.50;;
76552;SDS011;65395;53.168;18.156;2024-02-21T11:23:37;13.20;;;7.60;;
76552;SDS011;65395;53.168;18.156;2024-02-21T11:26:05;13.80;;;7.50;;
76552;SDS011;65395;53.168;18.156;2024-02-21T11:28:33;18.30;;;7.90;;
76552;SDS011;65395;53.168;18.156;2024-02-21T11:34:17;15.70;;;7.60;;
76552;SDS011;65395;53.168;18.156;2024-02-21T11:36:50;19.00;;;8.10;;
76552;SDS011;65395;53.168;18.156;2024-02-21T11:39:22;16.40;;;8.40;;
76552;SDS011;65395;53.168;18.156;2024-02-21T11:44:30;15.70;;;8.00;;
76552;SDS011;65395;53.168;18.156;2024-02-21T11:46:57;17.40;;;7.70;;
76552;SDS011;65395;53.168;18.156;2024-02-21T11:49:25;14.60;;;7.30;;
76552;SDS011;65395;53.168;18.156;2024-02-21T11:52:00;16.10;;;8.00;;
76552;SDS011;65395;53.168;18.156;2024-02-21T11:54:30;10.50;;;6.70;;
76552;SDS011;65395;53.168;18.156;2024-02-21T11:56:57;12.40;;;7.00;;
76552;SDS011;65395;53.168;18.156;2024-02-21T11:59:25;13.50;;;7.00;;
76552;SDS011;65395;53.168;18.156;2024-02-21T12:01:53;15.00;;;7.10;;
76552;SDS011;65395;53.168;18.156;2024-02-21T12:04:20;16.60;;;7.20;;
76552;SDS011;65395;53.168;18.156;2024-02-21T12:06:50;15.40;;;7.10;;
76552;SDS011;65395;53.168;18.156;2024-02-21T12:09:18;15.00;;;7.80;;
76552;SDS011;65395;53.168;18.156;2024-02-21T12:11:45;17.50;;;7.10;;
76552;SDS011;65395;53.168;18.156;2024-02-21T12:14:24;14.00;;;6.90;;
76552;SDS011;65395;53.168;18.156;2024-02-21T12:16:52;16.40;;;7.30;;
76552;SDS011;65395;53.168;18.156;2024-02-21T12:19:19;12.00;;;6.50;;
76552;SDS011;65395;53.168;18.156;2024-02-21T12:21:47;14.80;;;7.10;;
76552;SDS011;65395;53.168;18.156;2024-02-21T12:24:20;11.40;;;6.50;;
76552;SDS011;65395;53.168;18.156;2024-02-21T12:26:53;13.30;;;7.00;;
76552;SDS011;65395;53.168;18.156;2024-02-21T12:29:22;15.20;;;7.00;;
76552;SDS011;65395;53.168;18.156;2024-02-21T12:31:51;13.00;;;6.70;;
76552;SDS011;65395;53.168;18.156;2024-02-21T12:34:21;12.50;;;6.50;;
76552;SDS011;65395;53.168;18.156;2024-02-21T12:36:50;16.40;;;6.70;;
76552;SDS011;65395;53.168;18.156;2024-02-21T12:39:18;12.80;;;6.20;;
76552;SDS011;65395;53.168;18.156;2024-02-21T12:41:45;12.50;;;6.80;;
76552;SDS011;65395;53.168;18.156;2024-02-21T12:44:14;13.30;;;6.90;;
76552;SDS011;65395;53.168;18.156;2024-02-21T12:46:42;14.80;;;7.30;;
76552;SDS011;65395;53.168;18.156;2024-02-21T12:49:10;13.40;;;7.00;;
76552;SDS011;65395;53.168;18.156;2024-02-21T12:51:37;14.80;;;7.30;;
76552;SDS011;65395;53.168;18.156;2024-02-21T12:54:05;14.30;;;7.60;;
76552;SDS011;65395;53.168;18.156;2024-02-21T12:56:33;14.30;;;7.00;;
76552;SDS011;65395;53.168;18.156;2024-02-21T12:59:00;14.10;;;7.50;;
76552;SDS011;65395;53.168;18.156;2024-02-21T13:01:28;13.40;;;7.50;;
76552;SDS011;65395;53.168;18.156;2024-02-21T13:03:55;13.30;;;7.00;;
76552;SDS011;65395;53.168;18.156;2024-02-21T13:06:24;14.30;;;7.20;;
76552;SDS011;65395;53.168;18.156;2024-02-21T13:08:51;12.20;;;7.10;;
76552;SDS011;65395;53.168;18.156;2024-02-21T13:11:18;13.00;;;7.00;;
76552;SDS011;65395;53.168;18.156;2024-02-21T13:13:46;14.20;;;7.70;;
76552;SDS011;65395;53.168;18.156;2024-02-21T13:16:13;16.40;;;7.90;;
76552;SDS011;65395;53.168;18.156;2024-02-21T13:18:40;16.00;;;8.20;;
76552;SDS011;65395;53.168;18.156;2024-02-21T13:21:09;14.70;;;8.10;;
76552;SDS011;65395;53.168;18.156;2024-02-21T13:23:37;13.60;;;8.20;;
76552;SDS011;65395;53.168;18.156;2024-02-21T13:26:04;15.20;;;8.80;;
76552;SDS011;65395;53.168;18.156;2024-02-21T13:28:32;14.80;;;9.00;;
76552;SDS011;65395;53.168;18.156;2024-02-21T13:30:59;16.20;;;8.90;;
76552;SDS011;65395;53.168;18.156;2024-02-21T13:33:26;15.40;;;8.60;;
76552;SDS011;65395;53.168;18.156;2024-02-21T13:35:55;15.70;;;8.00;;
76552;SDS011;65395;53.168;18.156;2024-02-21T13:38:22;15.10;;;7.80;;
76552;SDS011;65395;53.168;18.156;2024-02-21T13:40:50;15.70;;;8.50;;
76552;SDS011;65395;53.168;18.156;2024-02-21T13:43:20;18.10;;;8.50;;
76552;SDS011;65395;53.168;18.156;2024-02-21T13:48:26;15.00;;;8.30;;
76552;SDS011;65395;53.168;18.156;2024-02-21T13:50:55;15.20;;;7.80;;
76552;SDS011;65395;53.168;18.156;2024-02-21T13:53:23;17.40;;;8.60;;
76552;SDS011;65395;53.168;18.156;2024-02-21T13:55:50;14.70;;;7.80;;
76552;SDS011;65395;53.168;18.156;2024-02-21T13:58:17;17.80;;;9.20;;
76552;SDS011;65395;53.168;18.156;2024-02-21T14:00:45;12.40;;;8.00;;
76552;SDS011;65395;53.168;18.156;2024-02-21T14:03:12;18.00;;;8.20;;
76552;SDS011;65395;53.168;18.156;2024-02-21T14:05:39;17.00;;;8.20;;
76552;SDS011;65395;53.168;18.156;2024-02-21T14:08:07;14.60;;;8.60;;
76552;SDS011;65395;53.168;18.156;2024-02-21T14:10:34;17.20;;;9.50;;
76552;SDS011;65395;53.168;18.156;2024-02-21T14:13:01;18.40;;;9.70;;
76552;SDS011;65395;53.168;18.156;2024-02-21T14:15:28;17.70;;;9.20;;
76552;SDS011;65395;53.168;18.156;2024-02-21T14:17:57;20.90;;;9.70;;
76552;SDS011;65395;53.168;18.156;2024-02-21T14:20:24;22.10;;;10.00;;
76552;SDS011;65395;53.168;18.156;2024-02-21T14:22:51;17.80;;;10.30;;
76552;SDS011;65395;53.168;18.156;2024-02-21T14:25:19;18.90;;;9.50;;
76552;SDS011;65395;53.168;18.156;2024-02-21T14:27:46;19.40;;;9.90;;
76552;SDS011;65395;53.168;18.156;2024-02-21T14:30:14;18.00;;;9.80;;
76552;SDS011;65395;53.168;18.156;2024-02-21T14:32:43;19.20;;;10.20;;